Orbital elements of SL-12 DEB
| Launched | 23 December 1985 |
| Flight ended | – |
| Launch site | Tyuratam Missile and Space Center, Kazakhstan (Also known as Baikonur Cosmodrome) |
| Owner | Commonwealth of Independent States (former USSR) |
| NORAD ID | 23292 |
| Date fetched |
Epoch osculation |
Inc. [°] |
Ecc. | RA asc node [hr] |
Arg Peri. [°] |
Mean anom [°] |
Mean motion [rev/day] |
Abs. mag |
| Date fetched |
Epoch osculation |
Inc. [°] |
Ecc. | RA asc node [hr] |
Arg Peri. [°] |
Mean anom [°] |
Mean motion [rev/day] |
Abs. mag |
| 2026 May 04 17:57 | 2026 Apr 27 22:24:48 | 65.3697 | 0.55170 | 21.8573 | 292.5497 | 19.3975 | 4.52189 | – |
| 2026 May 03 17:57 | 2026 Apr 27 22:24:48 | 65.3697 | 0.55170 | 21.8573 | 292.5497 | 19.3975 | 4.52189 | – |
| 2026 May 02 17:57 | 2026 Apr 27 22:24:48 | 65.3697 | 0.55170 | 21.8573 | 292.5497 | 19.3975 | 4.52189 | – |
| 2026 May 01 17:56 | 2026 Apr 27 22:24:48 | 65.3697 | 0.55170 | 21.8573 | 292.5497 | 19.3975 | 4.52189 | – |
| 2026 Apr 30 17:56 | 2026 Apr 27 22:24:48 | 65.3697 | 0.55170 | 21.8573 | 292.5497 | 19.3975 | 4.52189 | – |
| 2026 Apr 29 17:57 | 2026 Apr 20 09:57:18 | 65.3683 | 0.55188 | 22.0527 | 292.9987 | 19.3975 | 4.52189 | – |
| 2026 Apr 28 17:56 | 2026 Apr 20 09:57:18 | 65.3683 | 0.55188 | 22.0527 | 292.9987 | 19.3975 | 4.52189 | – |
| 2026 Apr 27 17:58 | 2026 Apr 20 09:57:18 | 65.3683 | 0.55188 | 22.0527 | 292.9987 | 19.3975 | 4.52189 | – |
| 2026 Apr 26 17:58 | 2026 Apr 20 09:57:18 | 65.3683 | 0.55188 | 22.0527 | 292.9987 | 19.3975 | 4.52189 | – |
| 2026 Apr 25 17:58 | 2026 Apr 20 09:57:18 | 65.3683 | 0.55188 | 22.0527 | 292.9987 | 19.3975 | 4.52189 | – |
| 2026 Apr 24 17:59 | 2026 Apr 20 09:57:18 | 65.3683 | 0.55188 | 22.0527 | 292.9987 | 19.3975 | 4.52189 | – |
| 2026 Apr 23 17:57 | 2026 Apr 14 10:39:02 | 65.3683 | 0.55197 | 22.2080 | 293.3513 | 19.3975 | 4.52189 | – |
| 2026 Apr 22 17:57 | 2026 Apr 14 10:39:02 | 65.3683 | 0.55197 | 22.2080 | 293.3513 | 19.3975 | 4.52189 | – |
| 2026 Apr 21 17:57 | 2026 Apr 14 10:39:02 | 65.3683 | 0.55197 | 22.2080 | 293.3513 | 19.3975 | 4.52189 | – |
| 2026 Apr 20 17:57 | 2026 Apr 14 10:39:02 | 65.3683 | 0.55197 | 22.2080 | 293.3513 | 19.3975 | 4.52189 | – |
| 2026 Apr 19 17:58 | 2026 Apr 14 10:39:02 | 65.3683 | 0.55197 | 22.2080 | 293.3513 | 19.3975 | 4.52189 | – |
| 2026 Apr 18 17:56 | 2026 Apr 12 21:29:51 | 65.3657 | 0.55200 | 22.2482 | 293.4430 | 19.3975 | 4.52189 | – |
| 2026 Apr 16 17:57 | 2026 Apr 12 21:29:51 | 65.3657 | 0.55200 | 22.2482 | 293.4430 | 19.3975 | 4.52189 | – |
| 2026 Apr 14 17:57 | 2026 Apr 12 21:29:51 | 65.3657 | 0.55200 | 22.2482 | 293.4430 | 19.3975 | 4.52189 | – |
| 2026 Apr 13 17:57 | 2026 Apr 12 21:29:51 | 65.3657 | 0.55200 | 22.2482 | 293.4430 | 19.3975 | 4.52189 | – |
| 2026 Apr 12 17:57 | 2026 Apr 06 06:16:11 | 65.3630 | 0.55208 | 22.4207 | 293.8377 | 19.3975 | 4.52189 | – |
| 2026 Apr 11 17:57 | 2026 Apr 06 06:16:11 | 65.3630 | 0.55208 | 22.4207 | 293.8377 | 19.3975 | 4.52189 | – |
| 2026 Apr 10 17:58 | 2026 Apr 06 06:16:11 | 65.3630 | 0.55208 | 22.4207 | 293.8377 | 19.3975 | 4.52189 | – |
| 2026 Apr 09 18:01 | 2026 Apr 06 06:16:11 | 65.3630 | 0.55208 | 22.4207 | 293.8377 | 19.3975 | 4.52189 | – |
| 2026 Apr 08 17:57 | 2026 Apr 06 06:16:11 | 65.3630 | 0.55208 | 22.4207 | 293.8377 | 19.3975 | 4.52189 | – |
| 2026 Apr 07 17:57 | 2026 Mar 26 15:30:18 | 65.3556 | 0.55223 | 22.6970 | 294.4667 | 19.3975 | 4.52189 | – |